createdAt,value
2018-12-11T00:00:52.341Z,4.92
2018-12-11T00:01:52.336Z,4.86
2018-12-11T00:02:52.299Z,4.87
2018-12-11T00:03:52.227Z,4.82
2018-12-11T00:04:52.214Z,4.86
2018-12-11T00:05:52.096Z,4.83
2018-12-11T00:06:52.096Z,4.86
2018-12-11T00:07:51.983Z,4.82
2018-12-11T00:08:51.973Z,4.79
2018-12-11T00:09:51.975Z,4.89
2018-12-11T00:10:51.861Z,4.79
2018-12-11T00:11:51.855Z,4.82
2018-12-11T00:12:51.731Z,4.83
2018-12-11T00:13:51.732Z,4.84
2018-12-11T00:14:51.736Z,4.82
2018-12-11T00:15:51.616Z,4.66
2018-12-11T00:16:51.612Z,4.66
2018-12-11T00:17:51.491Z,4.68
2018-12-11T00:18:51.502Z,4.66
2018-12-11T00:19:51.506Z,4.71
2018-12-11T00:20:51.372Z,4.61
2018-12-11T00:21:51.379Z,4.58
2018-12-11T00:22:51.252Z,4.53
2018-12-11T00:23:51.252Z,4.56
2018-12-11T00:24:51.133Z,4.57
2018-12-11T00:25:51.130Z,4.63
2018-12-11T00:26:51.142Z,4.61
2018-12-11T00:27:51.009Z,4.60
2018-12-11T00:28:51.010Z,4.52
2018-12-11T00:29:50.891Z,4.57
2018-12-11T00:30:50.888Z,4.57
2018-12-11T00:31:50.900Z,4.46
2018-12-11T00:32:50.771Z,4.45
2018-12-11T00:33:50.769Z,4.43
2018-12-11T00:34:50.651Z,4.45
2018-12-11T00:35:50.648Z,4.48
2018-12-11T00:36:50.652Z,4.46
2018-12-11T00:37:50.527Z,4.49
2018-12-11T00:38:50.532Z,4.43
2018-12-11T00:39:50.407Z,4.45
2018-12-11T00:40:50.406Z,4.42
2018-12-11T00:41:50.371Z,4.43
2018-12-11T00:42:50.286Z,4.48
2018-12-11T00:43:50.286Z,4.48
2018-12-11T00:44:50.165Z,4.50
2018-12-11T00:45:50.173Z,4.45
2018-12-11T00:46:50.048Z,4.45
2018-12-11T00:47:50.044Z,4.48
2018-12-11T00:48:50.054Z,4.43
2018-12-11T00:49:49.926Z,4.42
2018-12-11T00:50:49.924Z,4.52
2018-12-11T00:51:49.813Z,4.52
2018-12-11T00:52:49.809Z,4.50
2018-12-11T00:53:49.805Z,4.48
2018-12-11T00:54:49.683Z,4.52
2018-12-11T00:55:49.683Z,4.43
2018-12-11T00:56:49.569Z,4.42
2018-12-11T00:57:49.570Z,4.46
2018-12-11T00:58:49.530Z,4.45
2018-12-11T00:59:49.448Z,4.42
2018-12-11T01:00:49.441Z,4.42
2018-12-11T01:01:49.328Z,4.46
2018-12-11T01:02:49.328Z,4.43
2018-12-11T01:03:49.203Z,4.34
2018-12-11T01:04:49.204Z,4.38
2018-12-11T01:05:49.208Z,4.39
2018-12-11T01:06:49.084Z,4.39
2018-12-11T01:07:49.084Z,4.32
2018-12-11T01:08:48.960Z,4.31
2018-12-11T01:09:48.960Z,4.31
2018-12-11T01:10:48.961Z,4.36
2018-12-11T01:11:48.842Z,4.34
2018-12-11T01:12:48.841Z,4.36
2018-12-11T01:13:48.720Z,4.38
2018-12-11T01:14:48.719Z,4.40
2018-12-11T01:15:48.702Z,4.39
2018-12-11T01:16:48.599Z,4.40
2018-12-11T01:17:48.598Z,4.28
2018-12-11T01:18:48.479Z,4.28
2018-12-11T01:19:48.481Z,4.28
2018-12-11T01:20:48.357Z,4.24
2018-12-11T01:21:48.360Z,4.31
2018-12-11T01:22:48.358Z,4.31
2018-12-11T01:23:48.239Z,4.32
2018-12-11T01:24:48.245Z,4.32
2018-12-11T01:25:48.117Z,4.30
2018-12-11T01:26:48.118Z,4.30
2018-12-11T01:27:48.117Z,4.32
2018-12-11T01:28:47.997Z,4.31
2018-12-11T01:29:47.997Z,4.34
2018-12-11T01:30:47.883Z,4.36
2018-12-11T01:31:47.876Z,4.40
2018-12-11T01:32:47.873Z,4.39
2018-12-11T01:33:47.760Z,4.43
2018-12-11T01:34:47.764Z,4.49
2018-12-11T01:35:47.640Z,4.48
2018-12-11T01:36:47.634Z,4.45
2018-12-11T01:37:47.525Z,4.56
2018-12-11T01:38:47.516Z,4.53
2018-12-11T01:39:47.517Z,4.57
2018-12-11T01:40:47.394Z,4.60
2018-12-11T01:41:47.401Z,4.58
2018-12-11T01:42:47.281Z,4.60
2018-12-11T01:43:47.277Z,4.58
2018-12-11T01:44:47.280Z,4.57
2018-12-11T01:45:47.165Z,4.53
2018-12-11T01:46:47.154Z,4.56
2018-12-11T01:47:47.033Z,4.50
2018-12-11T01:48:47.043Z,4.58
2018-12-11T01:49:47.031Z,4.50
2018-12-11T01:50:46.917Z,4.50
2018-12-11T01:51:46.924Z,4.56
2018-12-11T01:52:46.799Z,4.53
2018-12-11T01:53:46.793Z,4.52
2018-12-11T01:54:46.673Z,4.49
2018-12-11T01:55:46.671Z,4.52
2018-12-11T01:56:46.671Z,4.45
2018-12-11T01:57:46.552Z,4.49
2018-12-11T01:58:46.550Z,4.56
2018-12-11T01:59:46.438Z,4.43
2018-12-11T02:00:46.460Z,4.43
2018-12-11T02:01:46.433Z,4.42
2018-12-11T02:02:46.312Z,4.48
2018-12-11T02:03:46.308Z,4.45
2018-12-11T02:04:46.195Z,4.42
2018-12-11T02:05:46.197Z,4.45
2018-12-11T02:06:46.189Z,4.46
2018-12-11T02:07:46.075Z,4.49
2018-12-11T02:08:46.067Z,4.50
2018-12-11T02:09:45.955Z,4.48
2018-12-11T02:10:45.954Z,4.38
2018-12-11T02:11:45.829Z,4.46
2018-12-11T02:12:45.827Z,4.50
2018-12-11T02:13:45.828Z,4.52
2018-12-11T02:14:45.707Z,4.42
2018-12-11T02:15:45.709Z,4.48
2018-12-11T02:16:45.586Z,4.42
2018-12-11T02:17:45.587Z,4.42
2018-12-11T02:18:45.597Z,4.45
2018-12-11T02:19:45.467Z,4.42
2018-12-11T02:20:45.474Z,4.49
2018-12-11T02:21:45.348Z,4.52
2018-12-11T02:22:45.349Z,4.50
2018-12-11T02:23:45.345Z,4.58
2018-12-11T02:24:45.227Z,4.52
2018-12-11T02:25:45.231Z,4.61
2018-12-11T02:26:45.104Z,4.52
2018-12-11T02:27:45.106Z,4.63
2018-12-11T02:28:45.075Z,4.66
2018-12-11T02:29:44.992Z,4.66
2018-12-11T02:30:44.989Z,4.66
2018-12-11T02:31:44.873Z,4.68
2018-12-11T02:32:44.872Z,4.66
2018-12-11T02:33:44.745Z,4.68
2018-12-11T02:34:44.747Z,4.71
2018-12-11T02:35:44.744Z,4.75
2018-12-11T02:36:44.626Z,4.78
2018-12-11T02:37:44.641Z,4.82
2018-12-11T02:38:44.502Z,4.84
2018-12-11T02:39:44.501Z,4.86
2018-12-11T02:40:44.504Z,4.89
2018-12-11T02:41:44.385Z,4.83
2018-12-11T02:42:44.386Z,4.90
2018-12-11T02:43:44.266Z,4.84
2018-12-11T02:44:44.266Z,4.89
2018-12-11T02:45:44.258Z,4.87
2018-12-11T02:46:44.140Z,4.90
2018-12-11T02:47:44.151Z,4.95
2018-12-11T02:48:44.025Z,4.83
2018-12-11T02:49:44.019Z,4.92
2018-12-11T02:50:43.901Z,4.89
2018-12-11T02:51:43.900Z,4.86
2018-12-11T02:52:43.903Z,4.89
2018-12-11T02:53:43.789Z,4.95
2018-12-11T02:54:43.786Z,4.97
2018-12-11T02:55:43.662Z,5.05
2018-12-11T02:56:43.663Z,4.98
2018-12-11T02:57:43.661Z,4.97
2018-12-11T02:58:43.541Z,5.02
2018-12-11T02:59:43.549Z,4.97
2018-12-11T03:00:43.420Z,5.12
2018-12-11T03:01:43.418Z,5.02
2018-12-11T03:02:43.424Z,5.04
2018-12-11T03:03:43.302Z,5.07
2018-12-11T03:04:43.297Z,5.04
2018-12-11T03:05:43.177Z,5.04
2018-12-11T03:06:43.180Z,5.08
2018-12-11T03:07:43.141Z,5.07
2018-12-11T03:08:43.063Z,5.10
2018-12-11T03:09:43.061Z,5.07
2018-12-11T03:10:42.942Z,5.08
2018-12-11T03:11:42.942Z,5.18
2018-12-11T03:12:42.819Z,5.01
2018-12-11T03:13:42.822Z,5.10
2018-12-11T03:14:42.835Z,5.13
2018-12-11T03:15:42.821Z,5.13
2018-12-11T03:16:42.700Z,5.16
2018-12-11T03:17:42.588Z,5.16
2018-12-11T03:18:42.575Z,5.20
2018-12-11T03:19:42.576Z,5.16
2018-12-11T03:20:42.467Z,5.20
2018-12-11T03:21:42.454Z,5.19
2018-12-11T03:22:42.338Z,5.20
2018-12-11T03:23:42.334Z,5.19
2018-12-11T03:24:42.337Z,5.16
2018-12-11T03:25:42.214Z,5.16
2018-12-11T03:26:42.213Z,5.20
2018-12-11T03:27:42.097Z,5.16
2018-12-11T03:28:42.097Z,5.19
2018-12-11T03:29:41.978Z,5.16
2018-12-11T03:30:42.008Z,5.15
2018-12-11T03:31:41.995Z,5.20
2018-12-11T03:32:41.853Z,5.15
2018-12-11T03:33:41.851Z,5.16
2018-12-11T03:34:41.733Z,5.10
2018-12-11T03:35:41.737Z,5.12
2018-12-11T03:36:41.738Z,5.12
2018-12-11T03:37:41.611Z,5.08
2018-12-11T03:38:41.614Z,5.13
2018-12-11T03:39:41.491Z,5.12
2018-12-11T03:40:41.509Z,5.10
2018-12-11T03:41:41.500Z,5.16
2018-12-11T03:42:41.369Z,5.13
2018-12-11T03:43:41.375Z,5.16
2018-12-11T03:44:41.250Z,5.16
2018-12-11T03:45:41.251Z,5.12
2018-12-11T03:46:41.253Z,5.16
2018-12-11T03:47:41.130Z,5.20
2018-12-11T03:48:41.129Z,5.18
2018-12-11T03:49:41.008Z,5.18
2018-12-11T03:50:41.008Z,5.13
2018-12-11T03:51:40.890Z,5.20
2018-12-11T03:52:40.893Z,5.18
2018-12-11T03:53:40.888Z,5.19
2018-12-11T03:54:40.769Z,5.20
2018-12-11T03:55:40.774Z,5.16
2018-12-11T03:56:40.650Z,5.19
2018-12-11T03:57:40.655Z,5.23
2018-12-11T03:58:40.647Z,5.20
2018-12-11T03:59:40.532Z,5.22
2018-12-11T04:00:40.534Z,5.22
2018-12-11T04:01:40.425Z,5.18
2018-12-11T04:02:40.405Z,5.19
2018-12-11T04:03:40.406Z,5.16
2018-12-11T04:04:40.297Z,5.23
2018-12-11T04:05:40.286Z,5.10
2018-12-11T04:06:40.167Z,5.08
2018-12-11T04:07:40.170Z,5.13
2018-12-11T04:08:40.166Z,5.08
2018-12-11T04:09:40.049Z,5.12
2018-12-11T04:10:40.046Z,5.13
2018-12-11T04:11:39.930Z,5.04
2018-12-11T04:12:39.924Z,5.15
2018-12-11T04:13:39.886Z,5.01
2018-12-11T04:14:39.804Z,5.05
2018-12-11T04:15:39.819Z,5.08
2018-12-11T04:16:39.686Z,5.07
2018-12-11T04:17:39.693Z,5.05
2018-12-11T04:18:39.561Z,5.00
2018-12-11T04:19:39.564Z,5.00
2018-12-11T04:20:39.567Z,5.02
2018-12-11T04:21:39.451Z,5.05
2018-12-11T04:22:39.442Z,4.95
2018-12-11T04:23:39.326Z,4.92
2018-12-11T04:24:39.324Z,4.87
2018-12-11T04:25:39.320Z,4.94
2018-12-11T04:26:39.203Z,4.94
2018-12-11T04:27:39.284Z,4.84
2018-12-11T04:28:39.083Z,4.84
2018-12-11T04:29:39.082Z,4.98
2018-12-11T04:30:39.048Z,4.97
2018-12-11T04:31:38.963Z,4.95
2018-12-11T04:32:38.969Z,5.02
2018-12-11T04:33:38.845Z,4.98
2018-12-11T04:34:38.838Z,4.90
2018-12-11T04:35:38.807Z,4.89
2018-12-11T04:36:38.719Z,4.90
2018-12-11T04:37:38.727Z,4.95
2018-12-11T04:38:38.605Z,5.01
2018-12-11T04:39:38.600Z,4.83
2018-12-11T04:40:38.484Z,5.02
2018-12-11T04:41:38.485Z,5.00
2018-12-11T04:42:38.476Z,4.97
2018-12-11T04:43:38.357Z,4.95
2018-12-11T04:44:38.360Z,4.98
2018-12-11T04:45:38.266Z,4.97
2018-12-11T04:46:38.237Z,4.95
2018-12-11T04:47:38.243Z,4.98
2018-12-11T04:48:38.122Z,4.95
2018-12-11T04:49:38.117Z,5.00
2018-12-11T04:50:37.997Z,5.02
2018-12-11T04:51:37.998Z,4.92
2018-12-11T04:52:37.877Z,5.02
2018-12-11T04:53:37.883Z,5.04
2018-12-11T04:54:37.885Z,4.97
2018-12-11T04:55:37.755Z,4.97
2018-12-11T04:56:37.764Z,5.07
2018-12-11T04:57:37.642Z,4.97
2018-12-11T04:58:37.634Z,5.10
2018-12-11T04:59:37.634Z,5.05
2018-12-11T05:00:37.514Z,5.07
2018-12-11T05:01:37.514Z,5.05
2018-12-11T05:02:37.394Z,5.04
2018-12-11T05:03:37.394Z,5.10
2018-12-11T05:04:37.398Z,5.13
2018-12-11T05:05:37.272Z,5.02
2018-12-11T05:06:37.271Z,5.01
2018-12-11T05:07:37.158Z,5.12
2018-12-11T05:08:37.158Z,5.04
2018-12-11T05:09:37.168Z,5.10
2018-12-11T05:10:37.033Z,5.15
2018-12-11T05:11:37.034Z,5.20
2018-12-11T05:12:36.917Z,5.13
2018-12-11T05:13:36.917Z,5.19
2018-12-11T05:14:36.792Z,5.16
2018-12-11T05:15:36.795Z,5.19
2018-12-11T05:16:36.795Z,5.18
2018-12-11T05:17:36.678Z,5.18
2018-12-11T05:18:36.675Z,5.16
2018-12-11T05:19:36.556Z,5.22
2018-12-11T05:20:36.558Z,5.19
2018-12-11T05:21:36.550Z,5.22
2018-12-11T05:22:36.434Z,5.26
2018-12-11T05:23:36.431Z,5.26
2018-12-11T05:24:36.307Z,5.25
2018-12-11T05:25:36.311Z,5.29
2018-12-11T05:26:36.309Z,5.25
2018-12-11T05:27:36.188Z,5.25
2018-12-11T05:28:36.188Z,5.26
2018-12-11T05:29:36.077Z,5.36
2018-12-11T05:30:36.075Z,5.33
2018-12-11T05:31:36.066Z,5.29
2018-12-11T05:32:35.947Z,5.37
2018-12-11T05:33:35.954Z,5.37
2018-12-11T05:34:35.831Z,5.38
2018-12-11T05:35:35.832Z,5.36
2018-12-11T05:36:35.706Z,5.38
2018-12-11T05:37:35.705Z,5.33
2018-12-11T05:38:35.705Z,5.37
2018-12-11T05:39:35.584Z,5.37
2018-12-11T05:40:35.587Z,5.41
2018-12-11T05:41:35.466Z,5.36
2018-12-11T05:42:35.472Z,5.40
2018-12-11T05:43:35.470Z,5.43
2018-12-11T05:44:35.345Z,5.38
2018-12-11T05:45:35.350Z,5.40
2018-12-11T05:46:35.226Z,5.38
2018-12-11T05:47:35.225Z,5.40
2018-12-11T05:48:35.226Z,5.38
2018-12-11T05:49:35.108Z,5.36
2018-12-11T05:50:35.105Z,5.44
2018-12-11T05:51:34.990Z,5.44
2018-12-11T05:52:34.983Z,5.38
2018-12-11T05:53:34.980Z,5.44
2018-12-11T05:54:34.861Z,5.44
2018-12-11T05:55:34.862Z,5.37
2018-12-11T05:56:34.750Z,5.37
2018-12-11T05:57:34.741Z,5.20
2018-12-11T05:58:34.622Z,5.25
2018-12-11T05:59:34.619Z,5.20
2018-12-11T06:00:34.625Z,5.26
2018-12-11T06:01:34.509Z,5.23
2018-12-11T06:02:34.501Z,5.28
2018-12-11T06:03:34.378Z,5.33
2018-12-11T06:04:34.379Z,5.31
2018-12-11T06:05:34.384Z,5.23
2018-12-11T06:06:34.259Z,5.18
2018-12-11T06:07:34.265Z,5.22
2018-12-11T06:08:34.137Z,5.22
2018-12-11T06:09:34.138Z,5.20
2018-12-11T06:10:34.146Z,5.18
2018-12-11T06:11:34.019Z,5.16
2018-12-11T06:12:34.017Z,5.12
2018-12-11T06:13:33.912Z,5.13
2018-12-11T06:14:33.907Z,5.15
2018-12-11T06:15:33.906Z,5.10
2018-12-11T06:16:33.777Z,5.02
2018-12-11T06:17:33.781Z,5.08
2018-12-11T06:18:33.655Z,5.10
2018-12-11T06:19:33.655Z,5.04
2018-12-11T06:20:34.557Z,5.04
2018-12-11T06:21:33.537Z,5.10
2018-12-11T06:22:33.535Z,5.05
2018-12-11T06:23:33.415Z,5.10
2018-12-11T06:24:33.415Z,5.05
2018-12-11T06:25:33.297Z,5.08
2018-12-11T06:26:33.299Z,5.05
2018-12-11T06:27:33.293Z,5.05
2018-12-11T06:28:33.174Z,5.10
2018-12-11T06:29:33.173Z,5.07
2018-12-11T06:30:33.055Z,5.07
2018-12-11T06:31:33.053Z,5.02
2018-12-11T06:32:33.051Z,5.00
2018-12-11T06:33:32.934Z,5.05
2018-12-11T06:34:32.933Z,5.05
2018-12-11T06:35:32.813Z,5.07
2018-12-11T06:36:32.811Z,5.02
2018-12-11T06:37:32.812Z,5.04
2018-12-11T06:38:32.689Z,4.98
2018-12-11T06:39:32.698Z,5.04
2018-12-11T06:40:32.576Z,5.00
2018-12-11T06:41:32.579Z,4.94
2018-12-11T06:42:32.450Z,4.95
2018-12-11T06:43:32.448Z,4.94
2018-12-11T06:44:32.455Z,4.98
2018-12-11T06:45:32.330Z,5.04
2018-12-11T06:46:32.331Z,5.02
2018-12-11T06:47:32.210Z,4.97
2018-12-11T06:48:32.211Z,4.95
2018-12-11T06:49:32.214Z,5.02
2018-12-11T06:50:32.088Z,5.02
2018-12-11T06:51:32.086Z,5.00
2018-12-11T06:52:31.969Z,5.01
2018-12-11T06:53:31.982Z,4.95
2018-12-11T06:54:31.974Z,4.95
2018-12-11T06:55:31.847Z,4.95
2018-12-11T06:56:31.845Z,5.02
2018-12-11T06:57:31.729Z,4.90
2018-12-11T06:58:31.740Z,4.89
2018-12-11T06:59:31.729Z,4.98
2018-12-11T07:00:31.610Z,4.84
2018-12-11T07:01:31.614Z,4.97
2018-12-11T07:02:31.484Z,4.82
2018-12-11T07:03:31.485Z,4.84
2018-12-11T07:04:31.370Z,4.92
2018-12-11T07:05:31.372Z,4.78
2018-12-11T07:06:31.369Z,4.89
2018-12-11T07:07:31.243Z,4.82
2018-12-11T07:08:31.248Z,4.92
2018-12-11T07:09:31.121Z,4.83
2018-12-11T07:10:31.128Z,4.79
2018-12-11T07:11:31.126Z,4.78
2018-12-11T07:12:31.006Z,4.92
2018-12-11T07:13:31.027Z,4.83
2018-12-11T07:14:30.885Z,4.86
2018-12-11T07:15:30.886Z,4.90
2018-12-11T07:16:30.883Z,4.79
2018-12-11T07:17:30.767Z,4.84
2018-12-11T07:18:30.766Z,4.89
2018-12-11T07:19:30.648Z,4.83
2018-12-11T07:20:30.641Z,4.83
2018-12-11T07:21:30.602Z,4.84
2018-12-11T07:22:30.521Z,4.71
2018-12-11T07:23:30.526Z,4.74
2018-12-11T07:24:30.404Z,4.79
2018-12-11T07:25:30.413Z,4.67
2018-12-11T07:26:30.289Z,4.76
2018-12-11T07:27:30.288Z,4.64
2018-12-11T07:28:30.286Z,4.64
2018-12-11T07:29:30.158Z,4.67
2018-12-11T07:30:30.162Z,4.60
2018-12-11T07:31:30.073Z,4.66
2018-12-11T07:32:30.051Z,4.66
2018-12-11T07:33:30.040Z,4.66
2018-12-11T07:34:29.921Z,4.64
2018-12-11T07:35:29.916Z,4.68
2018-12-11T07:36:29.796Z,4.66
2018-12-11T07:37:29.797Z,4.66
2018-12-11T07:38:29.802Z,4.66
2018-12-11T07:39:29.676Z,4.64
2018-12-11T07:40:29.675Z,4.67
2018-12-11T07:41:29.568Z,4.64
2018-12-11T07:42:29.555Z,4.67
2018-12-11T07:43:29.434Z,4.67
2018-12-11T07:44:29.434Z,4.71
2018-12-11T07:45:29.434Z,4.70
2018-12-11T07:46:29.313Z,4.83
2018-12-11T07:47:29.321Z,4.83
2018-12-11T07:48:29.196Z,4.78
2018-12-11T07:49:29.192Z,4.86
2018-12-11T07:50:29.193Z,4.82
2018-12-11T07:51:29.081Z,4.84
2018-12-11T07:52:29.071Z,4.76
2018-12-11T07:53:28.953Z,4.98
2018-12-11T07:54:28.953Z,4.90
2018-12-11T07:55:28.955Z,4.95
2018-12-11T07:56:28.830Z,4.86
2018-12-11T07:57:28.831Z,4.95
2018-12-11T07:58:28.709Z,5.01
2018-12-11T07:59:28.709Z,5.00
2018-12-11T08:00:28.591Z,4.95
2018-12-11T08:01:28.591Z,5.00
2018-12-11T08:02:28.589Z,4.95
2018-12-11T08:03:28.525Z,5.05
2018-12-11T08:04:28.476Z,5.05
2018-12-11T08:05:28.350Z,5.07
2018-12-11T08:06:28.349Z,5.08
2018-12-11T08:07:28.354Z,5.13
2018-12-11T08:08:28.227Z,5.10
2018-12-11T08:09:28.229Z,5.08
2018-12-11T08:10:28.117Z,5.05
2018-12-11T08:11:28.110Z,5.04
2018-12-11T08:12:28.106Z,5.10
2018-12-11T08:13:27.988Z,5.08
2018-12-11T08:14:27.988Z,5.15
2018-12-11T08:15:27.869Z,5.05
2018-12-11T08:16:27.867Z,5.01
2018-12-11T08:17:27.833Z,5.10
2018-12-11T08:18:27.750Z,5.08
2018-12-11T08:19:27.749Z,5.02
2018-12-11T08:20:27.627Z,4.98
2018-12-11T08:21:27.625Z,4.95
2018-12-11T08:22:27.588Z,5.00
2018-12-11T08:23:27.504Z,4.98
2018-12-11T08:24:27.505Z,5.04
2018-12-11T08:25:27.386Z,4.98
2018-12-11T08:26:27.391Z,4.98
2018-12-11T08:27:27.265Z,5.01
2018-12-11T08:28:27.264Z,4.98
2018-12-11T08:29:27.266Z,4.94
2018-12-11T08:30:27.150Z,4.84
2018-12-11T08:31:27.142Z,4.94
2018-12-11T08:32:27.024Z,4.89
2018-12-11T08:33:27.023Z,4.95
2018-12-11T08:34:27.033Z,4.92
2018-12-11T08:35:26.903Z,4.98
2018-12-11T08:36:26.902Z,4.98
2018-12-11T08:37:26.784Z,4.97
2018-12-11T08:38:26.785Z,4.89
2018-12-11T08:39:27.163Z,4.89
2018-12-11T08:40:26.667Z,4.95
2018-12-11T08:41:26.666Z,4.83
2018-12-11T08:42:26.541Z,4.98
2018-12-11T08:43:26.540Z,4.89
2018-12-11T08:44:26.419Z,5.05
2018-12-11T08:45:26.472Z,4.98
2018-12-11T08:46:26.422Z,4.95
2018-12-11T08:47:26.300Z,4.98
2018-12-11T08:48:26.307Z,4.92
2018-12-11T08:49:26.180Z,4.90
2018-12-11T08:50:26.179Z,4.92
2018-12-11T08:51:26.180Z,4.98
2018-12-11T08:53:13.554Z,4.97
2018-12-11T08:54:13.347Z,4.98
2018-12-11T08:55:13.301Z,5.05
2018-12-11T08:56:13.249Z,5.00
2018-12-11T08:57:13.199Z,4.97
2018-12-11T08:58:13.153Z,5.00
2018-12-11T08:59:13.099Z,4.97
2018-12-11T09:00:13.052Z,5.01
2018-12-11T09:01:13.003Z,5.05
2018-12-11T09:02:12.954Z,5.04
2018-12-11T09:03:12.911Z,5.07
2018-12-11T09:04:12.856Z,5.05
2018-12-11T09:05:12.804Z,4.98
2018-12-11T09:06:12.761Z,5.02
2018-12-11T09:07:12.715Z,5.04
2018-12-11T09:08:12.670Z,5.08
2018-12-11T09:09:12.612Z,5.07
2018-12-11T09:10:12.579Z,5.20
2018-12-11T09:11:12.508Z,5.16
2018-12-11T09:12:12.459Z,5.16
2018-12-11T09:13:12.411Z,5.16
2018-12-11T09:14:12.362Z,5.20
2018-12-11T09:15:12.316Z,5.12
2018-12-11T09:16:12.342Z,5.16
2018-12-11T09:17:12.213Z,5.22
2018-12-11T09:18:12.266Z,5.22
2018-12-11T09:19:12.143Z,5.20
2018-12-11T09:20:12.138Z,5.33
2018-12-11T09:21:12.021Z,5.29
2018-12-11T09:22:12.018Z,5.25
2018-12-11T09:23:12.027Z,5.33
2018-12-11T09:24:11.898Z,5.43
2018-12-11T09:25:11.899Z,5.38
2018-12-11T09:26:11.778Z,5.33
2018-12-11T09:27:11.776Z,5.37
2018-12-11T09:28:11.860Z,5.47
2018-12-11T09:29:11.659Z,5.54
2018-12-11T09:30:11.667Z,5.52
2018-12-11T09:31:11.543Z,5.54
2018-12-11T09:32:11.544Z,5.64
2018-12-11T09:33:11.536Z,5.64
2018-12-11T09:34:11.417Z,5.67
2018-12-11T09:35:11.415Z,5.79
2018-12-11T09:36:11.303Z,5.77
2018-12-11T09:37:11.304Z,5.91
2018-12-11T09:38:11.259Z,5.99
2018-12-11T09:39:11.181Z,5.97
2018-12-11T09:40:11.184Z,6.09
2018-12-11T09:41:11.057Z,5.98
2018-12-11T09:42:11.061Z,6.01
2018-12-11T09:43:10.934Z,6.09
2018-12-11T09:44:10.933Z,6.22
2018-12-11T09:45:10.941Z,6.20
2018-12-11T09:46:10.828Z,6.32
2018-12-11T09:47:10.815Z,6.20
2018-12-11T09:48:10.698Z,6.28
2018-12-11T09:49:10.692Z,6.34
2018-12-11T09:50:10.699Z,6.41
2018-12-11T09:51:10.578Z,6.44
2018-12-11T09:52:10.578Z,6.49
2018-12-11T09:53:10.452Z,6.52
2018-12-11T09:54:10.453Z,6.53
2018-12-11T09:55:10.450Z,6.53
2018-12-11T09:56:10.331Z,6.53
2018-12-11T09:57:10.330Z,6.64
2018-12-11T09:58:10.211Z,6.57
2018-12-11T09:59:10.212Z,6.71
2018-12-11T10:00:10.210Z,6.70
2018-12-11T10:01:10.092Z,6.57
2018-12-11T10:02:10.100Z,6.64
2018-12-11T10:03:09.970Z,6.72
2018-12-11T10:04:09.975Z,6.70
2018-12-11T10:05:09.976Z,6.62
2018-12-11T10:06:09.848Z,6.72
2018-12-11T10:07:09.849Z,6.71
2018-12-11T10:08:09.732Z,6.71
2018-12-11T10:09:09.734Z,6.75
2018-12-11T10:10:09.728Z,6.64
2018-12-11T10:11:09.617Z,6.75
2018-12-11T10:12:09.608Z,6.71
2018-12-11T10:13:09.487Z,6.72
2018-12-11T10:14:09.495Z,6.83
2018-12-11T10:15:09.489Z,6.78
2018-12-11T10:16:09.368Z,6.82
2018-12-11T10:17:09.375Z,6.83
2018-12-11T10:18:09.246Z,6.89
2018-12-11T10:19:09.252Z,6.93
2018-12-11T10:20:09.249Z,6.97
2018-12-11T10:21:09.133Z,6.96
2018-12-11T10:22:09.125Z,6.97
2018-12-11T10:23:09.015Z,7.08
2018-12-11T10:24:09.013Z,7.03
2018-12-11T10:25:08.886Z,7.04
2018-12-11T10:26:08.887Z,7.01
2018-12-11T10:27:08.884Z,7.08
2018-12-11T10:28:08.778Z,7.04
2018-12-11T10:29:08.772Z,6.97
2018-12-11T10:30:08.645Z,7.01
2018-12-11T10:31:08.648Z,7.07
2018-12-11T10:32:08.643Z,7.00
2018-12-11T10:33:08.530Z,7.07
2018-12-11T10:34:08.536Z,7.07
2018-12-11T10:35:08.403Z,7.08
2018-12-11T10:36:08.410Z,7.05
2018-12-11T10:37:08.409Z,6.95
2018-12-11T10:38:08.289Z,6.96
2018-12-11T10:39:08.281Z,6.97
2018-12-11T10:40:08.171Z,7.01
2018-12-11T10:41:08.207Z,6.92
2018-12-11T10:42:08.161Z,6.96
2018-12-11T10:43:08.040Z,6.87
2018-12-11T10:44:08.039Z,6.95
2018-12-11T10:45:07.921Z,6.93
2018-12-11T10:46:07.924Z,6.92
2018-12-11T10:47:07.919Z,6.90
2018-12-11T10:48:07.799Z,6.85
2018-12-11T10:49:07.798Z,6.95
2018-12-11T10:50:07.680Z,7.03
2018-12-11T10:51:07.678Z,7.03
2018-12-11T10:52:07.686Z,7.15
2018-12-11T10:53:07.560Z,7.15
2018-12-11T10:54:07.562Z,7.11
2018-12-11T10:55:07.437Z,7.15
2018-12-11T10:56:07.446Z,7.15
2018-12-11T10:57:07.438Z,7.14
2018-12-11T10:58:07.317Z,7.15
2018-12-11T10:59:07.321Z,7.11
2018-12-11T11:00:07.196Z,7.19
2018-12-11T11:01:07.196Z,7.25
2018-12-11T11:02:07.205Z,7.39
2018-12-11T11:03:07.075Z,7.50
2018-12-11T11:04:07.078Z,7.55
2018-12-11T11:05:06.955Z,7.69
2018-12-11T11:06:06.955Z,7.61
2018-12-11T11:07:06.966Z,7.62
2018-12-11T11:08:06.834Z,7.62
2018-12-11T11:09:06.834Z,7.55
2018-12-11T11:10:06.730Z,7.58
2018-12-11T11:11:06.715Z,7.58
2018-12-11T11:12:06.717Z,7.47
2018-12-11T11:13:06.598Z,7.48
2018-12-11T11:14:06.595Z,7.46
2018-12-11T11:15:06.474Z,7.50
2018-12-11T11:16:06.473Z,7.44
2018-12-11T11:17:06.481Z,7.41
2018-12-11T11:18:06.360Z,7.46
2018-12-11T11:19:06.359Z,7.36
2018-12-11T11:20:06.231Z,7.33
2018-12-11T11:21:06.231Z,7.31
2018-12-11T11:22:06.233Z,7.31
2018-12-11T11:23:06.112Z,7.36
2018-12-11T11:24:06.122Z,7.32
2018-12-11T11:25:05.999Z,7.29
2018-12-11T11:26:05.996Z,7.28
2018-12-11T11:27:05.990Z,7.26
2018-12-11T11:28:05.880Z,7.46
2018-12-11T11:29:05.875Z,7.41
2018-12-11T11:30:05.749Z,7.48
2018-12-11T11:31:05.752Z,7.50
2018-12-11T11:32:05.750Z,7.62
2018-12-11T11:33:05.637Z,7.62
2018-12-11T11:34:05.633Z,7.72
2018-12-11T11:35:05.512Z,7.72
2018-12-11T11:36:05.508Z,7.78
2018-12-11T11:37:05.516Z,7.77
2018-12-11T11:38:05.387Z,7.74
2018-12-11T11:39:05.387Z,7.67
2018-12-11T11:40:05.275Z,7.74
2018-12-11T11:41:05.275Z,7.87
2018-12-11T11:42:05.275Z,7.90
2018-12-11T11:43:05.156Z,7.98
2018-12-11T11:44:05.154Z,7.90
2018-12-11T11:45:05.039Z,7.95
2018-12-11T11:46:05.030Z,7.91
2018-12-11T11:47:05.025Z,7.95
2018-12-11T11:48:04.908Z,7.98
2018-12-11T11:49:04.919Z,7.98
2018-12-11T11:50:04.785Z,8.03
2018-12-11T11:51:04.783Z,7.98
2018-12-11T11:52:04.785Z,8.06
2018-12-11T11:53:04.666Z,8.14
2018-12-11T11:54:04.665Z,8.09
2018-12-11T11:55:04.544Z,8.18
2018-12-11T11:56:04.547Z,8.24
2018-12-11T11:57:04.545Z,8.23
2018-12-11T11:58:04.423Z,8.32
2018-12-11T11:59:04.433Z,8.21
2018-12-11T12:00:04.303Z,8.18
2018-12-11T12:01:04.309Z,8.28
2018-12-11T12:02:04.307Z,8.32
2018-12-11T12:03:04.183Z,8.32
2018-12-11T12:04:04.187Z,8.32
2018-12-11T12:05:04.061Z,8.41
2018-12-11T12:06:04.062Z,8.50
2018-12-11T12:07:04.063Z,8.46
2018-12-11T12:08:03.941Z,8.46
2018-12-11T12:09:03.942Z,8.54
2018-12-11T12:10:03.826Z,8.57
2018-12-11T12:11:03.819Z,8.54
2018-12-11T12:12:03.822Z,8.52
2018-12-11T12:13:03.704Z,8.61
2018-12-11T12:14:03.704Z,8.59
2018-12-11T12:15:03.580Z,8.69
2018-12-11T12:16:03.581Z,8.63
2018-12-11T12:17:03.579Z,8.63
2018-12-11T12:18:03.458Z,8.71
2018-12-11T12:19:03.463Z,8.74
2018-12-11T12:20:03.346Z,8.79
2018-12-11T12:21:03.340Z,8.82
2018-12-11T12:22:03.345Z,8.86
2018-12-11T12:23:03.229Z,8.82
2018-12-11T12:24:03.217Z,8.81
2018-12-11T12:25:03.105Z,8.82
2018-12-11T12:26:03.096Z,8.78
2018-12-11T12:27:03.105Z,8.84
2018-12-11T12:28:02.984Z,8.77
2018-12-11T12:29:02.981Z,8.78
2018-12-11T12:30:02.972Z,8.75
2018-12-11T12:31:02.855Z,8.64
2018-12-11T12:32:02.859Z,8.71
2018-12-11T12:33:02.745Z,8.72
2018-12-11T12:34:02.736Z,8.79
2018-12-11T12:35:02.736Z,8.79
2018-12-11T12:36:02.617Z,8.77
2018-12-11T12:37:02.626Z,8.74
2018-12-11T12:38:02.496Z,8.89
2018-12-11T12:39:02.499Z,8.92
2018-12-11T12:40:02.494Z,8.87
2018-12-11T12:41:02.375Z,8.99
2018-12-11T12:42:02.376Z,8.96
2018-12-11T12:43:02.253Z,9.05
2018-12-11T12:44:02.259Z,9.00
2018-12-11T12:45:02.259Z,8.93
2018-12-11T12:46:02.132Z,8.93
2018-12-11T12:47:02.133Z,9.05
2018-12-11T12:48:02.024Z,9.09
2018-12-11T12:49:02.014Z,9.08
2018-12-11T12:50:02.014Z,9.08
2018-12-11T12:51:01.898Z,9.05
2018-12-11T12:52:01.899Z,9.08
2018-12-11T12:53:01.770Z,9.08
2018-12-11T12:54:01.773Z,9.09
2018-12-11T12:55:01.772Z,9.05
2018-12-11T12:56:01.655Z,9.12
2018-12-11T12:57:01.667Z,9.12
2018-12-11T12:58:01.543Z,9.13
2018-12-11T12:59:01.540Z,9.08
2018-12-11T13:00:01.539Z,9.13
2018-12-11T13:01:01.417Z,9.03
2018-12-11T13:02:01.418Z,9.11
2018-12-11T13:03:01.377Z,9.02
2018-12-11T13:04:01.296Z,9.03
2018-12-11T13:05:01.297Z,9.00
2018-12-11T13:06:01.174Z,9.03
2018-12-11T13:07:01.169Z,9.05
2018-12-11T13:08:01.170Z,9.12
2018-12-11T13:09:01.048Z,9.15
2018-12-11T13:10:01.046Z,9.18
2018-12-11T13:11:00.927Z,9.21
2018-12-11T13:12:00.925Z,9.15
2018-12-11T13:13:00.929Z,9.16
2018-12-11T13:14:00.814Z,9.24
2018-12-11T13:15:06.954Z,9.26
2018-12-11T13:16:00.695Z,9.26
2018-12-11T13:17:00.685Z,9.29
2018-12-11T13:18:00.770Z,9.16
2018-12-11T13:19:00.566Z,9.19